sensor_id;sensor_type;location;lat;lon;timestamp;pressure;altitude;pressure_sealevel;temperature;humidity
58467;BME280;44255;49.244;7.726;2022-07-09T03:31:54;99447.91;;;11.76;57.99
58467;BME280;44255;49.244;7.726;2022-07-09T03:34:25;99445.22;;;11.55;59.06
58467;BME280;44255;49.244;7.726;2022-07-09T03:36:51;99434.22;;;11.41;58.89
58467;BME280;44255;49.244;7.726;2022-07-09T03:39:20;99432.41;;;11.41;58.82
58467;BME280;44255;49.244;7.726;2022-07-09T03:41:45;99443.81;;;11.46;58.91
58467;BME280;44255;49.244;7.726;2022-07-09T03:44:10;99446.13;;;11.56;58.87
58467;BME280;44255;49.244;7.726;2022-07-09T03:46:36;99441.88;;;11.50;59.17
58467;BME280;44255;49.244;7.726;2022-07-09T03:49:01;99448.19;;;11.28;59.69
58467;BME280;44255;49.244;7.726;2022-07-09T03:51:27;99453.63;;;11.47;59.17
58467;BME280;44255;49.244;7.726;2022-07-09T03:53:52;99449.19;;;11.46;58.99
58467;BME280;44255;49.244;7.726;2022-07-09T03:56:17;99454.78;;;11.62;58.73
58467;BME280;44255;49.244;7.726;2022-07-09T03:58:45;99447.78;;;11.58;58.66
58467;BME280;44255;49.244;7.726;2022-07-09T04:01:10;99450.41;;;11.60;58.67
58467;BME280;44255;49.244;7.726;2022-07-09T04:03:35;99452.19;;;11.59;58.60
58467;BME280;44255;49.244;7.726;2022-07-09T04:06:01;99457.31;;;11.66;58.41
58467;BME280;44255;49.244;7.726;2022-07-09T04:08:26;99449.66;;;11.56;58.50
58467;BME280;44255;49.244;7.726;2022-07-09T04:10:51;99451.53;;;11.75;57.97
58467;BME280;44255;49.244;7.726;2022-07-09T04:13:16;99460.00;;;11.66;58.10
58467;BME280;44255;49.244;7.726;2022-07-09T04:15:42;99458.88;;;11.71;57.95
58467;BME280;44255;49.244;7.726;2022-07-09T04:18:07;99452.41;;;11.75;57.88
58467;BME280;44255;49.244;7.726;2022-07-09T04:20:32;99454.75;;;11.83;57.57
58467;BME280;44255;49.244;7.726;2022-07-09T04:22:58;99449.38;;;11.83;57.54
58467;BME280;44255;49.244;7.726;2022-07-09T04:25:23;99453.22;;;11.77;57.83
58467;BME280;44255;49.244;7.726;2022-07-09T04:27:48;99452.88;;;11.85;57.86
58467;BME280;44255;49.244;7.726;2022-07-09T04:30:14;99454.59;;;11.86;57.34
58467;BME280;44255;49.244;7.726;2022-07-09T04:32:39;99454.81;;;11.82;57.65
58467;BME280;44255;49.244;7.726;2022-07-09T04:35:05;99461.22;;;11.79;57.83
58467;BME280;44255;49.244;7.726;2022-07-09T04:37:30;99457.94;;;11.91;57.21
58467;BME280;44255;49.244;7.726;2022-07-09T04:39:55;99450.03;;;11.88;57.47
58467;BME280;44255;49.244;7.726;2022-07-09T04:42:21;99444.94;;;12.03;57.13
58467;BME280;44255;49.244;7.726;2022-07-09T04:44:46;99447.28;;;12.11;57.16
58467;BME280;44255;49.244;7.726;2022-07-09T04:47:12;99445.81;;;12.23;57.40
58467;BME280;44255;49.244;7.726;2022-07-09T04:49:37;99448.16;;;12.30;57.04
58467;BME280;44255;49.244;7.726;2022-07-09T04:52:03;99443.16;;;12.42;57.07
58467;BME280;44255;49.244;7.726;2022-07-09T04:54:28;99444.66;;;12.47;56.89
58467;BME280;44255;49.244;7.726;2022-07-09T04:56:54;99450.16;;;12.06;57.74
58467;BME280;44255;49.244;7.726;2022-07-09T04:59:19;99443.06;;;12.43;57.03
58467;BME280;44255;49.244;7.726;2022-07-09T05:01:45;99442.78;;;12.49;56.86
58467;BME280;44255;49.244;7.726;2022-07-09T05:04:11;99440.16;;;12.48;57.14
58467;BME280;44255;49.244;7.726;2022-07-09T05:06:36;99438.63;;;12.04;59.61
58467;BME280;44255;49.244;7.726;2022-07-09T05:09:02;99431.66;;;12.57;58.33
58467;BME280;44255;49.244;7.726;2022-07-09T05:11:27;99436.19;;;12.74;57.86
58467;BME280;44255;49.244;7.726;2022-07-09T05:13:53;99441.69;;;12.90;58.36
58467;BME280;44255;49.244;7.726;2022-07-09T05:16:18;99436.22;;;12.92;58.08
58467;BME280;44255;49.244;7.726;2022-07-09T05:18:44;99429.31;;;13.05;57.97
58467;BME280;44255;49.244;7.726;2022-07-09T05:21:09;99433.00;;;13.03;58.17
58467;BME280;44255;49.244;7.726;2022-07-09T05:23:34;99434.88;;;13.20;57.65
58467;BME280;44255;49.244;7.726;2022-07-09T05:26:00;99438.97;;;13.27;57.87
58467;BME280;44255;49.244;7.726;2022-07-09T05:28:25;99434.53;;;13.26;58.08
58467;BME280;44255;49.244;7.726;2022-07-09T05:30:51;99428.75;;;13.34;57.95
58467;BME280;44255;49.244;7.726;2022-07-09T05:33:16;99427.56;;;13.40;57.92
58467;BME280;44255;49.244;7.726;2022-07-09T05:35:42;99422.00;;;13.43;58.07
58467;BME280;44255;49.244;7.726;2022-07-09T05:38:07;99415.28;;;13.52;57.78
58467;BME280;44255;49.244;7.726;2022-07-09T05:40:33;99424.78;;;13.59;57.88
58467;BME280;44255;49.244;7.726;2022-07-09T05:42:58;99424.53;;;13.63;58.44
58467;BME280;44255;49.244;7.726;2022-07-09T05:45:23;99419.56;;;13.89;57.91
58467;BME280;44255;49.244;7.726;2022-07-09T05:47:49;99414.41;;;14.02;57.72
58467;BME280;44255;49.244;7.726;2022-07-09T05:50:14;99416.66;;;14.10;57.96
58467;BME280;44255;49.244;7.726;2022-07-09T05:52:39;99415.28;;;14.19;58.03
58467;BME280;44255;49.244;7.726;2022-07-09T05:55:05;99416.88;;;14.39;57.68
58467;BME280;44255;49.244;7.726;2022-07-09T05:57:30;99403.72;;;14.49;57.38
58467;BME280;44255;49.244;7.726;2022-07-09T05:59:56;99407.63;;;14.59;57.19
58467;BME280;44255;49.244;7.726;2022-07-09T06:02:21;99411.63;;;14.68;57.36
58467;BME280;44255;49.244;7.726;2022-07-09T06:04:47;99405.63;;;14.79;57.30
58467;BME280;44255;49.244;7.726;2022-07-09T06:07:13;99410.66;;;14.85;57.49
58467;BME280;44255;49.244;7.726;2022-07-09T06:09:38;99406.81;;;14.89;57.46
58467;BME280;44255;49.244;7.726;2022-07-09T06:12:04;99411.25;;;15.07;57.38
58467;BME280;44255;49.244;7.726;2022-07-09T06:14:29;99402.84;;;15.11;57.56
58467;BME280;44255;49.244;7.726;2022-07-09T06:16:55;99406.56;;;15.25;57.07
58467;BME280;44255;49.244;7.726;2022-07-09T06:19:21;99407.47;;;15.25;57.09
58467;BME280;44255;49.244;7.726;2022-07-09T06:21:46;99402.25;;;15.37;57.30
58467;BME280;44255;49.244;7.726;2022-07-09T06:24:11;99406.22;;;15.45;57.46
58467;BME280;44255;49.244;7.726;2022-07-09T06:26:37;99398.81;;;15.64;57.60
58467;BME280;44255;49.244;7.726;2022-07-09T06:29:02;99403.47;;;15.76;57.39
58467;BME280;44255;49.244;7.726;2022-07-09T06:31:27;99400.03;;;15.88;57.24
58467;BME280;44255;49.244;7.726;2022-07-09T06:33:52;99403.03;;;15.98;57.34
58467;BME280;44255;49.244;7.726;2022-07-09T06:36:18;99403.88;;;16.13;56.57
58467;BME280;44255;49.244;7.726;2022-07-09T06:38:43;99409.22;;;16.15;57.08
58467;BME280;44255;49.244;7.726;2022-07-09T06:41:27;99395.13;;;16.37;56.68
58467;BME280;44255;49.244;7.726;2022-07-09T06:43:52;99395.78;;;16.55;56.33
58467;BME280;44255;49.244;7.726;2022-07-09T06:46:18;99399.53;;;16.67;55.82
58467;BME280;44255;49.244;7.726;2022-07-09T06:48:43;99401.97;;;16.85;55.97
58467;BME280;44255;49.244;7.726;2022-07-09T06:51:08;99402.69;;;17.01;55.97
58467;BME280;44255;49.244;7.726;2022-07-09T06:53:33;99396.00;;;17.07;56.04
58467;BME280;44255;49.244;7.726;2022-07-09T06:55:59;99398.41;;;17.25;55.71
58467;BME280;44255;49.244;7.726;2022-07-09T06:58:24;99395.75;;;17.51;55.55
58467;BME280;44255;49.244;7.726;2022-07-09T07:00:49;99399.66;;;17.59;55.32
58467;BME280;44255;49.244;7.726;2022-07-09T07:03:15;99399.00;;;17.82;54.83
58467;BME280;44255;49.244;7.726;2022-07-09T07:05:40;99398.69;;;17.86;54.34
58467;BME280;44255;49.244;7.726;2022-07-09T07:08:06;99393.56;;;18.08;54.17
58467;BME280;44255;49.244;7.726;2022-07-09T07:10:31;99403.41;;;18.22;54.10
58467;BME280;44255;49.244;7.726;2022-07-09T07:12:56;99390.59;;;18.37;53.84
58467;BME280;44255;49.244;7.726;2022-07-09T07:15:22;99388.47;;;18.53;53.03
58467;BME280;44255;49.244;7.726;2022-07-09T07:17:47;99389.75;;;18.61;51.15
58467;BME280;44255;49.244;7.726;2022-07-09T07:20:14;99388.88;;;18.84;49.98
58467;BME280;44255;49.244;7.726;2022-07-09T07:22:39;99384.13;;;18.99;49.83
58467;BME280;44255;49.244;7.726;2022-07-09T07:25:05;99387.66;;;19.13;49.53
58467;BME280;44255;49.244;7.726;2022-07-09T07:27:30;99383.59;;;19.19;48.12
58467;BME280;44255;49.244;7.726;2022-07-09T07:29:56;99384.75;;;19.27;47.91
58467;BME280;44255;49.244;7.726;2022-07-09T07:32:21;99374.16;;;19.47;47.49
58467;BME280;44255;49.244;7.726;2022-07-09T07:34:46;99370.97;;;19.65;46.66
58467;BME280;44255;49.244;7.726;2022-07-09T07:37:11;99380.09;;;19.64;45.64
58467;BME280;44255;49.244;7.726;2022-07-09T07:39:37;99374.91;;;19.49;45.66
58467;BME280;44255;49.244;7.726;2022-07-09T07:42:02;99373.94;;;19.73;45.70
58467;BME280;44255;49.244;7.726;2022-07-09T07:44:27;99382.53;;;19.91;46.52
58467;BME280;44255;49.244;7.726;2022-07-09T07:46:54;99376.19;;;20.13;45.27
58467;BME280;44255;49.244;7.726;2022-07-09T07:49:20;99376.19;;;20.25;46.33
58467;BME280;44255;49.244;7.726;2022-07-09T07:51:46;99384.38;;;19.91;46.73
58467;BME280;44255;49.244;7.726;2022-07-09T07:54:11;99380.94;;;20.00;46.30
58467;BME280;44255;49.244;7.726;2022-07-09T07:56:36;99374.47;;;20.12;46.00
58467;BME280;44255;49.244;7.726;2022-07-09T07:59:04;99379.44;;;20.19;46.00
58467;BME280;44255;49.244;7.726;2022-07-09T08:01:29;99373.13;;;19.95;46.37
58467;BME280;44255;49.244;7.726;2022-07-09T08:03:55;99378.22;;;20.00;46.08
58467;BME280;44255;49.244;7.726;2022-07-09T08:06:20;99378.94;;;20.02;46.09
58467;BME280;44255;49.244;7.726;2022-07-09T08:08:47;99378.03;;;20.36;45.15
58467;BME280;44255;49.244;7.726;2022-07-09T08:11:12;99380.22;;;20.42;45.76
58467;BME280;44255;49.244;7.726;2022-07-09T08:13:38;99368.88;;;20.48;45.93
58467;BME280;44255;49.244;7.726;2022-07-09T08:16:04;99365.38;;;20.46;44.26
58467;BME280;44255;49.244;7.726;2022-07-09T08:18:30;99368.72;;;20.50;44.40
58467;BME280;44255;49.244;7.726;2022-07-09T08:20:55;99362.16;;;20.64;44.62
58467;BME280;44255;49.244;7.726;2022-07-09T08:23:21;99362.50;;;20.70;43.71
58467;BME280;44255;49.244;7.726;2022-07-09T08:25:46;99359.72;;;20.82;43.64
58467;BME280;44255;49.244;7.726;2022-07-09T08:28:11;99366.41;;;20.89;43.37
58467;BME280;44255;49.244;7.726;2022-07-09T08:30:36;99368.13;;;20.90;43.11
58467;BME280;44255;49.244;7.726;2022-07-09T08:33:02;99372.53;;;21.03;42.43
58467;BME280;44255;49.244;7.726;2022-07-09T08:35:27;99360.41;;;20.95;42.03
58467;BME280;44255;49.244;7.726;2022-07-09T08:37:53;99370.88;;;20.79;41.94
58467;BME280;44255;49.244;7.726;2022-07-09T08:40:19;99366.47;;;20.99;42.81
58467;BME280;44255;49.244;7.726;2022-07-09T08:42:44;99363.09;;;21.07;42.94
58467;BME280;44255;49.244;7.726;2022-07-09T08:45:13;99362.81;;;21.10;42.53
58467;BME280;44255;49.244;7.726;2022-07-09T08:47:38;99355.97;;;21.16;42.40
58467;BME280;44255;49.244;7.726;2022-07-09T08:50:04;99354.06;;;21.27;42.52
58467;BME280;44255;49.244;7.726;2022-07-09T08:52:30;99345.91;;;21.27;41.16
58467;BME280;44255;49.244;7.726;2022-07-09T08:54:55;99345.44;;;21.22;40.25
58467;BME280;44255;49.244;7.726;2022-07-09T08:57:21;99342.44;;;21.25;40.63
58467;BME280;44255;49.244;7.726;2022-07-09T08:59:47;99348.47;;;21.50;40.91
58467;BME280;44255;49.244;7.726;2022-07-09T09:02:13;99347.63;;;21.81;41.30
58467;BME280;44255;49.244;7.726;2022-07-09T09:04:39;99330.59;;;21.89;40.20
58467;BME280;44255;49.244;7.726;2022-07-09T09:07:18;99334.22;;;21.99;40.10
58467;BME280;44255;49.244;7.726;2022-07-09T09:09:45;99332.50;;;22.08;40.14
58467;BME280;44255;49.244;7.726;2022-07-09T09:12:12;99325.34;;;22.17;40.06
58467;BME280;44255;49.244;7.726;2022-07-09T09:14:37;99325.53;;;22.35;39.29
58467;BME280;44255;49.244;7.726;2022-07-09T09:17:04;99323.53;;;22.37;38.09
58467;BME280;44255;49.244;7.726;2022-07-09T09:19:30;99319.91;;;22.36;37.53
58467;BME280;44255;49.244;7.726;2022-07-09T09:21:55;99319.81;;;22.48;38.19
58467;BME280;44255;49.244;7.726;2022-07-09T09:24:28;99327.84;;;22.39;37.78
58467;BME280;44255;49.244;7.726;2022-07-09T09:26:58;99330.50;;;21.79;40.18
58467;BME280;44255;49.244;7.726;2022-07-09T09:29:24;99338.91;;;21.66;40.00
58467;BME280;44255;49.244;7.726;2022-07-09T09:31:49;99331.72;;;21.65;40.55
58467;BME280;44255;49.244;7.726;2022-07-09T09:34:16;99329.09;;;21.84;40.43
58467;BME280;44255;49.244;7.726;2022-07-09T09:36:43;99328.78;;;21.78;39.99
58467;BME280;44255;49.244;7.726;2022-07-09T09:39:23;99319.31;;;21.82;39.74
58467;BME280;44255;49.244;7.726;2022-07-09T09:41:53;99320.16;;;21.82;39.92
58467;BME280;44255;49.244;7.726;2022-07-09T09:44:34;99311.63;;;21.66;40.04
58467;BME280;44255;49.244;7.726;2022-07-09T09:47:04;99308.44;;;21.61;39.58
58467;BME280;44255;49.244;7.726;2022-07-09T09:49:29;99318.38;;;21.93;39.23
58467;BME280;44255;49.244;7.726;2022-07-09T09:54:32;99310.84;;;22.26;40.32
58467;BME280;44255;49.244;7.726;2022-07-09T09:56:58;99304.28;;;22.48;39.26
58467;BME280;44255;49.244;7.726;2022-07-09T09:59:24;99305.31;;;22.67;38.56
58467;BME280;44255;49.244;7.726;2022-07-09T10:01:49;99296.25;;;22.86;38.09
58467;BME280;44255;49.244;7.726;2022-07-09T10:04:15;99305.72;;;23.02;36.97
58467;BME280;44255;49.244;7.726;2022-07-09T10:06:41;99308.63;;;23.00;37.07
58467;BME280;44255;49.244;7.726;2022-07-09T10:09:07;99309.34;;;22.92;37.01
58467;BME280;44255;49.244;7.726;2022-07-09T10:11:41;99309.34;;;22.73;37.38
58467;BME280;44255;49.244;7.726;2022-07-09T10:14:07;99302.59;;;22.67;37.05
58467;BME280;44255;49.244;7.726;2022-07-09T10:16:34;99302.59;;;22.67;38.15
58467;BME280;44255;49.244;7.726;2022-07-09T10:18:59;99295.09;;;22.69;38.08
58467;BME280;44255;49.244;7.726;2022-07-09T10:21:51;99309.50;;;22.81;37.86
58467;BME280;44255;49.244;7.726;2022-07-09T10:24:23;99305.44;;;22.95;37.92
58467;BME280;44255;49.244;7.726;2022-07-09T10:26:49;99297.38;;;23.23;37.96
58467;BME280;44255;49.244;7.726;2022-07-09T10:29:22;99292.75;;;23.23;37.33
58467;BME280;44255;49.244;7.726;2022-07-09T10:31:49;99306.88;;;22.89;37.06
58467;BME280;44255;49.244;7.726;2022-07-09T10:37:01;99296.53;;;22.63;37.98
58467;BME280;44255;49.244;7.726;2022-07-09T10:39:28;99291.03;;;23.03;36.82
58467;BME280;44255;49.244;7.726;2022-07-09T10:42:00;99282.81;;;23.22;36.76
58467;BME280;44255;49.244;7.726;2022-07-09T10:44:36;99278.91;;;23.35;36.23
58467;BME280;44255;49.244;7.726;2022-07-09T10:47:03;99279.72;;;23.55;35.88
58467;BME280;44255;49.244;7.726;2022-07-09T10:49:30;99280.97;;;23.61;35.90
58467;BME280;44255;49.244;7.726;2022-07-09T10:51:56;99276.81;;;23.57;36.02
58467;BME280;44255;49.244;7.726;2022-07-09T10:54:22;99279.50;;;23.29;35.54
58467;BME280;44255;49.244;7.726;2022-07-09T10:56:48;99269.13;;;23.13;34.98
58467;BME280;44255;49.244;7.726;2022-07-09T10:59:17;99265.81;;;23.29;35.43
58467;BME280;44255;49.244;7.726;2022-07-09T11:01:45;99265.25;;;23.15;37.38
58467;BME280;44255;49.244;7.726;2022-07-09T11:04:11;99267.41;;;23.11;37.81
58467;BME280;44255;49.244;7.726;2022-07-09T11:06:46;99258.63;;;23.28;36.47
58467;BME280;44255;49.244;7.726;2022-07-09T11:09:12;99257.31;;;23.32;36.18
58467;BME280;44255;49.244;7.726;2022-07-09T11:11:38;99244.66;;;23.31;35.91
58467;BME280;44255;49.244;7.726;2022-07-09T11:14:03;99248.88;;;23.53;34.76
58467;BME280;44255;49.244;7.726;2022-07-09T11:16:28;99244.50;;;23.13;34.72
58467;BME280;44255;49.244;7.726;2022-07-09T11:18:54;99244.16;;;23.73;35.32
58467;BME280;44255;49.244;7.726;2022-07-09T11:21:24;99252.69;;;23.70;33.41
58467;BME280;44255;49.244;7.726;2022-07-09T11:23:50;99242.16;;;24.03;33.40
58467;BME280;44255;49.244;7.726;2022-07-09T11:26:15;99232.53;;;23.99;34.14
58467;BME280;44255;49.244;7.726;2022-07-09T11:28:40;99237.53;;;25.47;31.89
58467;BME280;44255;49.244;7.726;2022-07-09T11:31:06;99228.31;;;24.59;32.30
58467;BME280;44255;49.244;7.726;2022-07-09T11:33:31;99225.28;;;24.44;33.53
58467;BME280;44255;49.244;7.726;2022-07-09T11:36:18;99232.47;;;23.81;34.15
58467;BME280;44255;49.244;7.726;2022-07-09T11:38:50;99240.56;;;23.83;34.81
58467;BME280;44255;49.244;7.726;2022-07-09T11:41:16;99229.41;;;23.94;33.81
58467;BME280;44255;49.244;7.726;2022-07-09T11:43:48;99217.47;;;25.82;31.74
58467;BME280;44255;49.244;7.726;2022-07-09T11:46:18;99222.38;;;26.21;31.74
58467;BME280;44255;49.244;7.726;2022-07-09T11:48:54;99223.31;;;25.95;31.25
58467;BME280;44255;49.244;7.726;2022-07-09T11:51:32;99217.66;;;26.05;31.78
58467;BME280;44255;49.244;7.726;2022-07-09T11:53:59;99224.38;;;25.59;32.71
58467;BME280;44255;49.244;7.726;2022-07-09T11:56:24;99228.94;;;25.16;31.91
58467;BME280;44255;49.244;7.726;2022-07-09T11:58:50;99221.06;;;25.47;31.99
58467;BME280;44255;49.244;7.726;2022-07-09T12:01:16;99205.38;;;26.75;31.22
58467;BME280;44255;49.244;7.726;2022-07-09T12:03:47;99206.41;;;26.91;30.84
58467;BME280;44255;49.244;7.726;2022-07-09T12:06:13;99202.47;;;27.02;29.64
58467;BME280;44255;49.244;7.726;2022-07-09T12:08:39;99197.84;;;27.59;29.00
58467;BME280;44255;49.244;7.726;2022-07-09T12:11:05;99196.47;;;28.18;27.29
58467;BME280;44255;49.244;7.726;2022-07-09T12:13:30;99201.19;;;28.09;27.30
58467;BME280;44255;49.244;7.726;2022-07-09T12:15:56;99186.22;;;27.24;29.04
58467;BME280;44255;49.244;7.726;2022-07-09T12:18:21;99185.28;;;26.25;29.98
58467;BME280;44255;49.244;7.726;2022-07-09T12:20:46;99168.81;;;26.33;29.83
58467;BME280;44255;49.244;7.726;2022-07-09T12:23:11;99180.13;;;26.55;29.78
58467;BME280;44255;49.244;7.726;2022-07-09T12:25:37;99184.09;;;27.51;28.21
58467;BME280;44255;49.244;7.726;2022-07-09T12:28:02;99176.38;;;27.77;27.66
58467;BME280;44255;49.244;7.726;2022-07-09T12:30:28;99185.63;;;26.55;29.55
58467;BME280;44255;49.244;7.726;2022-07-09T12:32:55;99172.81;;;25.45;30.97
58467;BME280;44255;49.244;7.726;2022-07-09T12:35:23;99180.94;;;25.20;31.16
58467;BME280;44255;49.244;7.726;2022-07-09T12:37:48;99180.63;;;25.23;30.97
58467;BME280;44255;49.244;7.726;2022-07-09T12:40:14;99173.66;;;25.45;30.50
58467;BME280;44255;49.244;7.726;2022-07-09T12:42:40;99174.69;;;25.44;30.39
58467;BME280;44255;49.244;7.726;2022-07-09T12:45:06;99170.41;;;25.93;30.23
58467;BME280;44255;49.244;7.726;2022-07-09T12:47:31;99172.56;;;26.41;29.67
58467;BME280;44255;49.244;7.726;2022-07-09T12:49:56;99164.81;;;26.53;29.51
58467;BME280;44255;49.244;7.726;2022-07-09T12:52:22;99164.41;;;25.81;29.63
58467;BME280;44255;49.244;7.726;2022-07-09T12:54:47;99159.69;;;26.25;29.89
58467;BME280;44255;49.244;7.726;2022-07-09T12:57:12;99149.31;;;26.02;30.94
58467;BME280;44255;49.244;7.726;2022-07-09T12:59:38;99145.88;;;25.91;31.15
58467;BME280;44255;49.244;7.726;2022-07-09T13:02:05;99153.25;;;25.91;31.93
58467;BME280;44255;49.244;7.726;2022-07-09T13:04:30;99154.28;;;25.90;31.16
58467;BME280;44255;49.244;7.726;2022-07-09T13:06:56;99152.69;;;25.71;31.23
58467;BME280;44255;49.244;7.726;2022-07-09T13:09:21;99145.69;;;25.85;30.94
58467;BME280;44255;49.244;7.726;2022-07-09T13:11:47;99144.56;;;25.61;30.62
58467;BME280;44255;49.244;7.726;2022-07-09T13:14:13;99142.28;;;26.07;30.41
58467;BME280;44255;49.244;7.726;2022-07-09T13:16:39;99146.25;;;26.71;29.43
58467;BME280;44255;49.244;7.726;2022-07-09T13:19:04;99136.97;;;26.56;29.55
58467;BME280;44255;49.244;7.726;2022-07-09T13:21:29;99138.56;;;26.33;29.63
58467;BME280;44255;49.244;7.726;2022-07-09T13:23:55;99132.31;;;26.06;29.50
58467;BME280;44255;49.244;7.726;2022-07-09T13:26:21;99125.66;;;26.26;28.33
58467;BME280;44255;49.244;7.726;2022-07-09T13:28:47;99123.72;;;25.93;29.33
58467;BME280;44255;49.244;7.726;2022-07-09T13:31:12;99118.25;;;26.18;29.39
58467;BME280;44255;49.244;7.726;2022-07-09T13:33:38;99124.88;;;25.22;30.86
58467;BME280;44255;49.244;7.726;2022-07-09T13:36:04;99122.44;;;25.19;30.65
58467;BME280;44255;49.244;7.726;2022-07-09T13:38:30;99119.03;;;25.26;30.20
58467;BME280;44255;49.244;7.726;2022-07-09T13:40:55;99130.81;;;25.09;30.41
58467;BME280;44255;49.244;7.726;2022-07-09T13:43:22;99120.38;;;25.56;30.34
58467;BME280;44255;49.244;7.726;2022-07-09T13:45:51;99117.56;;;25.48;30.66
58467;BME280;44255;49.244;7.726;2022-07-09T13:48:16;99117.91;;;24.49;31.58
58467;BME280;44255;49.244;7.726;2022-07-09T13:50:42;99126.44;;;24.99;32.43
58467;BME280;44255;49.244;7.726;2022-07-09T13:53:07;99117.19;;;25.34;31.65
58467;BME280;44255;49.244;7.726;2022-07-09T13:55:32;99109.31;;;25.40;31.98
58467;BME280;44255;49.244;7.726;2022-07-09T13:57:58;99098.09;;;25.25;31.91
58467;BME280;44255;49.244;7.726;2022-07-09T14:00:23;99098.50;;;25.46;31.63
58467;BME280;44255;49.244;7.726;2022-07-09T14:02:50;99104.00;;;25.38;31.13
58467;BME280;44255;49.244;7.726;2022-07-09T14:05:15;99092.72;;;25.06;30.93
58467;BME280;44255;49.244;7.726;2022-07-09T14:07:41;99109.50;;;24.50;31.83
58467;BME280;44255;49.244;7.726;2022-07-09T14:10:06;99102.56;;;24.38;31.82
58467;BME280;44255;49.244;7.726;2022-07-09T14:12:32;99106.03;;;25.01;31.73
58467;BME280;44255;49.244;7.726;2022-07-09T14:14:57;99107.88;;;24.92;32.16
58467;BME280;44255;49.244;7.726;2022-07-09T14:17:24;99092.19;;;25.46;31.72
58467;BME280;44255;49.244;7.726;2022-07-09T14:19:50;99098.16;;;25.41;30.49
58467;BME280;44255;49.244;7.726;2022-07-09T14:22:15;99101.09;;;25.48;30.78
58467;BME280;44255;49.244;7.726;2022-07-09T14:24:41;99092.34;;;25.44;30.89
58467;BME280;44255;49.244;7.726;2022-07-09T14:27:06;99094.09;;;25.54;30.80
58467;BME280;44255;49.244;7.726;2022-07-09T14:29:32;99085.84;;;25.54;31.85
58467;BME280;44255;49.244;7.726;2022-07-09T14:31:57;99097.81;;;25.44;31.32
58467;BME280;44255;49.244;7.726;2022-07-09T14:34:22;99085.41;;;25.23;31.99
58467;BME280;44255;49.244;7.726;2022-07-09T14:36:51;99087.16;;;25.33;32.44
58467;BME280;44255;49.244;7.726;2022-07-09T14:39:20;99089.91;;;25.33;32.58
58467;BME280;44255;49.244;7.726;2022-07-09T14:41:47;99082.16;;;25.28;32.71
58467;BME280;44255;49.244;7.726;2022-07-09T14:44:12;99085.06;;;25.27;31.85
58467;BME280;44255;49.244;7.726;2022-07-09T14:46:38;99069.81;;;25.32;32.95
58467;BME280;44255;49.244;7.726;2022-07-09T14:49:04;99071.19;;;25.36;32.84
58467;BME280;44255;49.244;7.726;2022-07-09T14:51:29;99069.63;;;25.26;32.32
58467;BME280;44255;49.244;7.726;2022-07-09T14:53:54;99066.53;;;25.20;32.79
58467;BME280;44255;49.244;7.726;2022-07-09T14:56:19;99064.97;;;25.18;32.08
58467;BME280;44255;49.244;7.726;2022-07-09T14:58:45;99058.16;;;25.38;32.34
58467;BME280;44255;49.244;7.726;2022-07-09T15:01:10;99060.44;;;25.51;32.90
58467;BME280;44255;49.244;7.726;2022-07-09T15:03:36;99067.28;;;25.39;32.26
58467;BME280;44255;49.244;7.726;2022-07-09T15:06:01;99058.63;;;25.17;31.88
58467;BME280;44255;49.244;7.726;2022-07-09T15:08:26;99061.44;;;25.34;31.58
58467;BME280;44255;49.244;7.726;2022-07-09T15:10:52;99052.66;;;25.38;31.27
58467;BME280;44255;49.244;7.726;2022-07-09T15:13:17;99053.88;;;25.36;32.13
58467;BME280;44255;49.244;7.726;2022-07-09T15:15:42;99042.41;;;25.41;31.65
58467;BME280;44255;49.244;7.726;2022-07-09T15:18:08;99051.19;;;25.61;31.99
58467;BME280;44255;49.244;7.726;2022-07-09T15:20:33;99044.13;;;25.50;32.52
58467;BME280;44255;49.244;7.726;2022-07-09T15:22:59;99036.03;;;25.32;32.19
58467;BME280;44255;49.244;7.726;2022-07-09T15:25:25;99036.00;;;25.15;31.07
58467;BME280;44255;49.244;7.726;2022-07-09T15:27:51;99028.09;;;24.77;32.03
58467;BME280;44255;49.244;7.726;2022-07-09T15:30:17;99027.69;;;24.64;31.50
58467;BME280;44255;49.244;7.726;2022-07-09T15:32:47;99028.06;;;25.04;31.65
58467;BME280;44255;49.244;7.726;2022-07-09T15:35:12;99022.81;;;24.49;31.57
58467;BME280;44255;49.244;7.726;2022-07-09T15:37:38;99026.50;;;24.66;30.98
58467;BME280;44255;49.244;7.726;2022-07-09T15:40:04;99023.25;;;25.06;31.02
58467;BME280;44255;49.244;7.726;2022-07-09T15:42:29;99019.53;;;25.15;30.85
58467;BME280;44255;49.244;7.726;2022-07-09T15:44:55;99022.47;;;25.22;31.10
58467;BME280;44255;49.244;7.726;2022-07-09T15:47:20;99017.28;;;25.19;32.15
58467;BME280;44255;49.244;7.726;2022-07-09T15:49:45;99020.53;;;25.06;31.60
58467;BME280;44255;49.244;7.726;2022-07-09T15:52:10;99018.91;;;24.95;33.27
58467;BME280;44255;49.244;7.726;2022-07-09T15:54:36;99017.31;;;24.84;32.93
58467;BME280;44255;49.244;7.726;2022-07-09T15:57:01;99021.97;;;24.57;32.73
58467;BME280;44255;49.244;7.726;2022-07-09T15:59:27;99022.97;;;24.21;32.73
58467;BME280;44255;49.244;7.726;2022-07-09T16:01:52;99012.03;;;24.03;33.59
58467;BME280;44255;49.244;7.726;2022-07-09T16:04:18;99008.25;;;24.49;32.90
58467;BME280;44255;49.244;7.726;2022-07-09T16:06:43;99002.22;;;24.45;34.00
58467;BME280;44255;49.244;7.726;2022-07-09T16:09:09;98997.63;;;24.46;33.48
58467;BME280;44255;49.244;7.726;2022-07-09T16:11:34;99011.91;;;24.39;33.49
58467;BME280;44255;49.244;7.726;2022-07-09T16:14:18;98998.34;;;24.56;33.73
58467;BME280;44255;49.244;7.726;2022-07-09T16:16:43;98990.03;;;24.74;33.84
58467;BME280;44255;49.244;7.726;2022-07-09T16:19:09;98995.09;;;24.61;33.62
58467;BME280;44255;49.244;7.726;2022-07-09T16:21:34;98996.34;;;24.40;33.73
58467;BME280;44255;49.244;7.726;2022-07-09T16:24:00;98999.84;;;24.24;34.22
58467;BME280;44255;49.244;7.726;2022-07-09T16:26:25;98998.59;;;24.71;35.47
58467;BME280;44255;49.244;7.726;2022-07-09T16:28:51;98993.63;;;24.75;33.36
58467;BME280;44255;49.244;7.726;2022-07-09T16:31:16;98988.53;;;24.80;35.70